Time;durP1;ratioP1;P1;durP2;ratioP2;P2;SDS_P1;SDS_P2;PMS_P1;PMS_P2;Temp;Humidity;BMP_temperature;BMP_pressure;BME280_temperature;BME280_humidity;BME280_pressure;Samples;Min_cycle;Max_cycle;Signal;HPM_P1;HPM_P2
2021/07/08 00:02:09;;;;;;;1.57;1.40;;;25.40;58.00;;;;;;4902869;29;20532;-84
2021/07/08 00:04:40;;;;;;;1.67;1.40;;;25.40;58.00;;;;;;4919179;29;20440;-84
2021/07/08 00:07:31;;;;;;;2.70;1.40;;;25.40;58.10;;;;;;4922334;29;20424;-84
2021/07/08 00:10:01;;;;;;;2.10;1.73;;;25.40;58.00;;;;;;4904917;29;20416;-84
2021/07/08 00:12:35;;;;;;;1.47;1.23;;;25.40;58.00;;;;;;4921337;29;20417;-84
2021/07/08 00:15:04;;;;;;;1.70;1.60;;;25.40;58.10;;;;;;4919862;29;20416;-84
2021/07/08 00:17:32;;;;;;;1.63;1.43;;;25.40;58.10;;;;;;4919090;29;20416;-84
2021/07/08 00:19:59;;;;;;;1.50;1.40;;;25.40;58.10;;;;;;4920447;29;20413;-84
2021/07/08 00:22:29;;;;;;;1.60;1.50;;;25.40;58.00;;;;;;4921739;29;20408;-84
2021/07/08 00:24:56;;;;;;;1.50;1.33;;;25.40;58.60;;;;;;4940499;29;20418;-84
2021/07/08 00:27:22;;;;;;;1.50;1.20;;;25.40;58.00;;;;;;4944056;29;20423;-84
2021/07/08 00:29:52;;;;;;;1.30;1.20;;;25.40;57.90;;;;;;4944371;29;20493;-84
2021/07/08 00:32:21;;;;;;;1.30;1.20;;;25.40;58.00;;;;;;4944204;29;20416;-84
2021/07/08 00:34:55;;;;;;;2.47;1.60;;;25.40;58.00;;;;;;4943639;29;20415;-84
2021/07/08 00:37:23;;;;;;;1.40;1.30;;;25.40;58.00;;;;;;4927486;29;20507;-84
2021/07/08 00:39:51;;;;;;;2.30;1.23;;;25.40;58.00;;;;;;4943862;29;20412;-85
2021/07/08 00:42:18;;;;;;;2.80;1.50;;;25.40;58.00;;;;;;4943281;29;20484;-84
2021/07/08 00:48:26;;;;;;;1.50;1.40;;;25.40;58.00;;;;;;4943946;29;20395;-84
2021/07/08 00:54:22;;;;;;;1.57;1.47;;;25.40;58.10;;;;;;4943453;29;20380;-84
2021/07/08 00:56:48;;;;;;;2.53;1.50;;;25.40;58.10;;;;;;4924121;29;20461;-84
2021/07/08 00:59:24;;;;;;;2.10;1.47;;;25.40;58.10;;;;;;5135136;23;20476;-84
2021/07/08 01:01:58;;;;;;;1.30;1.20;;;25.40;58.10;;;;;;4911954;29;20239;-84
2021/07/08 01:04:29;;;;;;;1.47;1.33;;;25.40;58.60;;;;;;4924612;29;20421;-83
2021/07/08 01:06:58;;;;;;;1.50;1.40;;;25.40;58.10;;;;;;4923998;29;20502;-84
2021/07/08 01:09:34;;;;;;;2.10;1.37;;;25.40;58.00;;;;;;4908390;29;20425;-83
2021/07/08 01:12:26;;;;;;;2.63;1.40;;;25.40;58.00;;;;;;4908328;29;20416;-83
2021/07/08 01:14:57;;;;;;;2.63;1.30;;;25.40;58.00;;;;;;4924511;29;20403;-84
2021/07/08 01:17:26;;;;;;;1.30;1.10;;;25.40;58.10;;;;;;4908197;29;20436;-84
2021/07/08 01:20:19;;;;;;;1.30;1.10;;;25.40;58.10;;;;;;4906796;29;20443;-83
2021/07/08 01:26:20;;;;;;;1.50;1.40;;;25.40;58.00;;;;;;4891442;29;20418;-84
2021/07/08 01:28:57;;;;;;;1.40;1.30;;;25.40;58.10;;;;;;4907037;29;20410;-84
2021/07/08 01:31:24;;;;;;;1.70;1.60;;;25.40;58.10;;;;;;4907200;29;20423;-84
2021/07/08 01:37:16;;;;;;;1.60;1.40;;;25.40;58.00;;;;;;4923699;29;20391;-84
2021/07/08 01:39:49;;;;;;;1.40;1.20;;;25.40;58.10;;;;;;4906411;29;20413;-84
2021/07/08 01:42:20;;;;;;;1.33;1.20;;;25.40;58.10;;;;;;4906033;29;20453;-84
2021/07/08 01:44:46;;;;;;;1.97;1.50;;;25.40;58.10;;;;;;4923183;29;20393;-84
2021/07/08 01:47:15;;;;;;;1.30;1.20;;;25.40;58.10;;;;;;4906357;29;20405;-84
2021/07/08 01:49:44;;;;;;;1.50;1.10;;;25.40;58.00;;;;;;4906887;29;20432;-83
2021/07/08 01:52:20;;;;;;;2.10;1.47;;;25.40;58.00;;;;;;4923096;29;20429;-83
2021/07/08 01:54:52;;;;;;;1.63;1.47;;;25.40;58.00;;;;;;4922493;29;20429;-84
2021/07/08 01:57:21;;;;;;;1.57;1.33;;;25.40;58.60;;;;;;4907141;29;20393;-84
2021/07/08 02:03:15;;;;;;;1.60;1.50;;;25.40;58.00;;;;;;4922881;29;20428;-84
2021/07/08 02:06:04;;;;;;;1.63;1.33;;;25.40;58.10;;;;;;4906657;29;20444;-84
2021/07/08 02:12:02;;;;;;;1.20;1.10;;;25.40;58.10;;;;;;4922917;29;20388;-83
2021/07/08 02:14:29;;;;;;;1.17;1.07;;;25.30;58.20;;;;;;4922011;29;20469;-83
2021/07/08 02:16:58;;;;;;;1.20;1.00;;;25.30;58.10;;;;;;4922374;29;20405;-84
2021/07/08 02:19:41;;;;;;;1.53;1.43;;;25.40;58.10;;;;;;4923026;29;20468;-84
2021/07/08 02:22:07;;;;;;;1.47;1.30;;;25.40;58.10;;;;;;4905571;29;20461;-84
2021/07/08 02:27:57;;;;;;;1.67;1.57;;;25.30;58.00;;;;;;4921710;29;20433;-83
2021/07/08 02:30:31;;;;;;;1.50;1.33;;;25.30;58.10;;;;;;4904435;29;20433;-83
2021/07/08 02:44:07;;;;;;;1.67;1.57;;;25.40;58.10;;;;;;5324947;23;20496;-85
2021/07/08 02:46:33;;;;;;;1.40;1.30;;;25.40;58.10;;;;;;4933147;29;20424;-84
2021/07/08 02:48:59;;;;;;;1.30;1.00;;;25.40;58.10;;;;;;4933263;29;20412;-86
2021/07/08 02:51:26;;;;;;;2.57;1.40;;;25.40;58.10;;;;;;4934512;29;20411;-84
2021/07/08 02:53:53;;;;;;;2.37;1.30;;;25.40;58.10;;;;;;4933084;29;20424;-84
2021/07/08 02:56:21;;;;;;;1.50;1.20;;;25.40;58.10;;;;;;4932148;29;20420;-85
2021/07/08 02:58:53;;;;;;;1.50;1.20;;;25.40;58.10;;;;;;4933771;29;20432;-85
2021/07/08 03:01:21;;;;;;;1.40;1.30;;;25.40;58.10;;;;;;4917363;29;20463;-84
2021/07/08 03:03:54;;;;;;;1.50;1.30;;;25.40;58.10;;;;;;4932444;29;20433;-83
2021/07/08 03:06:34;;;;;;;1.50;1.40;;;25.40;58.00;;;;;;4933538;29;20485;-84
2021/07/08 03:09:01;;;;;;;1.47;1.30;;;25.40;58.00;;;;;;4930939;29;20422;-84
2021/07/08 03:11:32;;;;;;;1.40;1.30;;;25.40;58.00;;;;;;4933291;29;20451;-83
2021/07/08 03:14:00;;;;;;;1.43;1.30;;;25.40;58.00;;;;;;4933236;29;20450;-84
2021/07/08 03:16:32;;;;;;;1.40;1.30;;;25.40;58.10;;;;;;4932156;29;20451;-84
2021/07/08 03:18:59;;;;;;;1.43;1.30;;;25.40;58.00;;;;;;4933573;29;20443;-84
2021/07/08 03:21:37;;;;;;;;;;;;;;;;;;;;;
2021/07/08 03:24:08;;;;;;;1.43;1.33;;;25.40;58.00;;;;;;4933021;29;20447;-83
2021/07/08 03:26:48;;;;;;;1.73;1.40;;;25.40;58.10;;;;;;4933092;29;20926;-83
2021/07/08 03:29:16;;;;;;;1.40;1.30;;;25.40;58.00;;;;;;4932272;29;20994;-85
2021/07/08 03:31:43;;;;;;;2.93;1.50;;;25.40;58.00;;;;;;4934350;29;20419;-84
2021/07/08 03:34:13;;;;;;;1.50;1.40;;;25.40;58.10;;;;;;4950028;28;20442;-84
2021/07/08 03:36:40;;;;;;;1.50;1.30;;;25.40;58.10;;;;;;4933070;29;20456;-84
2021/07/08 03:39:10;;;;;;;1.30;1.20;;;25.40;58.00;;;;;;4935165;29;20426;-84
2021/07/08 03:41:37;;;;;;;1.50;1.30;;;25.40;58.10;;;;;;4937142;29;20462;-84
2021/07/08 03:44:08;;;;;;;1.60;1.20;;;25.40;58.00;;;;;;4919857;29;20428;-84
2021/07/08 03:46:34;;;;;;;1.40;1.10;;;25.40;58.00;;;;;;4949469;29;20417;-84
2021/07/08 03:49:03;;;;;;;1.43;1.30;;;25.40;58.00;;;;;;4917724;29;20436;-84
2021/07/08 03:51:33;;;;;;;1.73;1.30;;;25.40;58.00;;;;;;4929907;29;20524;-84
2021/07/08 03:54:09;;;;;;;1.93;1.30;;;25.40;58.00;;;;;;4936247;29;20431;-84
2021/07/08 03:56:35;;;;;;;1.33;1.23;;;25.40;58.00;;;;;;4936495;29;20422;-84
2021/07/08 03:59:02;;;;;;;1.23;1.13;;;25.40;58.00;;;;;;4935911;29;20423;-84
2021/07/08 04:01:31;;;;;;;1.53;1.37;;;25.40;58.00;;;;;;4935709;29;20824;-84
2021/07/08 04:04:01;;;;;;;1.60;1.47;;;25.40;58.00;;;;;;4935163;29;20422;-84
2021/07/08 04:06:28;;;;;;;1.30;1.20;;;25.40;58.00;;;;;;4932858;29;20424;-84
2021/07/08 04:08:58;;;;;;;1.30;1.20;;;25.30;57.80;;;;;;4936503;29;20430;-84
2021/07/08 04:11:25;;;;;;;1.23;1.10;;;25.40;57.90;;;;;;4921930;29;20427;-84
2021/07/08 04:20:11;;;;;;;2.40;1.40;;;25.30;57.90;;;;;;4910759;29;20469;-84
2021/07/08 04:22:40;;;;;;;1.60;1.33;;;25.30;57.90;;;;;;4895881;29;20416;-85
2021/07/08 04:25:08;;;;;;;2.30;1.70;;;25.30;57.90;;;;;;4900476;29;20417;-85
2021/07/08 04:27:35;;;;;;;2.93;1.20;;;25.30;58.00;;;;;;4900170;29;20424;-84
2021/07/08 04:30:04;;;;;;;1.93;1.50;;;25.30;58.00;;;;;;4884770;29;20452;-84
2021/07/08 04:32:30;;;;;;;1.60;1.50;;;25.30;58.00;;;;;;4900207;29;20431;-83
2021/07/08 04:35:01;;;;;;;2.00;1.20;;;25.30;58.00;;;;;;4916049;29;20428;-85
2021/07/08 04:37:30;;;;;;;1.20;1.00;;;25.30;58.00;;;;;;4915570;29;20450;-85
2021/07/08 04:40:09;;;;;;;1.93;1.30;;;25.30;58.00;;;;;;4915563;29;20437;-85
2021/07/08 04:42:36;;;;;;;1.33;1.17;;;25.30;58.10;;;;;;4899552;29;20425;-85
2021/07/08 04:45:05;;;;;;;2.70;1.30;;;25.30;58.10;;;;;;4915507;29;20437;-85
2021/07/08 04:47:39;;;;;;;1.53;1.43;;;25.30;58.00;;;;;;4936109;29;20422;-83
2021/07/08 04:50:15;;;;;;;2.50;1.30;;;25.30;58.00;;;;;;4936271;29;20400;-84
2021/07/08 04:52:43;;;;;;;1.40;1.30;;;25.30;58.00;;;;;;4934733;29;20491;-85
2021/07/08 04:55:10;;;;;;;1.70;1.40;;;25.30;58.00;;;;;;4935394;29;20784;-84
2021/07/08 04:57:37;;;;;;;1.90;1.50;;;25.30;57.90;;;;;;4935847;29;20475;-84
2021/07/08 05:00:15;;;;;;;2.33;1.50;;;25.30;57.90;;;;;;4934987;29;20447;-88
2021/07/08 05:05:35;;;;;;;1.30;1.20;;;25.30;58.00;;;;;;4936174;29;20396;-85
2021/07/08 05:08:02;;;;;;;1.53;1.43;;;25.30;58.00;;;;;;4934453;29;20489;-84
2021/07/08 05:10:29;;;;;;;1.50;1.40;;;25.30;58.00;;;;;;4918914;29;20436;-84
2021/07/08 05:12:55;;;;;;;1.60;1.50;;;25.30;58.00;;;;;;4934224;29;20455;-84
2021/07/08 05:15:23;;;;;;;1.37;1.27;;;25.30;58.00;;;;;;4934616;29;20464;-84
2021/07/08 05:17:50;;;;;;;2.80;1.53;;;25.30;58.00;;;;;;4934260;29;20478;-84
2021/07/08 05:20:19;;;;;;;2.07;1.30;;;25.30;58.10;;;;;;4934417;29;20454;-84
2021/07/08 05:22:47;;;;;;;1.40;1.30;;;25.30;58.00;;;;;;4935163;29;20443;-83
2021/07/08 05:25:15;;;;;;;2.60;1.70;;;25.30;58.00;;;;;;4935415;29;20408;-86
2021/07/08 05:27:42;;;;;;;1.53;1.33;;;25.30;58.10;;;;;;4936083;29;20887;-87
2021/07/08 05:30:16;;;;;;;1.80;1.30;;;25.20;58.00;;;;;;4936014;29;20412;-87
2021/07/08 05:32:42;;;;;;;1.83;1.50;;;25.20;58.00;;;;;;4933981;29;20458;-86
2021/07/08 05:35:09;;;;;;;1.40;1.30;;;25.20;58.00;;;;;;4935518;29;20428;-85
2021/07/08 05:40:44;;;;;;;1.57;1.47;;;25.30;58.10;;;;;;4935152;29;20459;-85
2021/07/08 05:43:12;;;;;;;2.10;1.50;;;25.20;58.10;;;;;;4932265;29;20456;-84
2021/07/08 05:45:38;;;;;;;2.40;1.70;;;25.20;58.30;;;;;;4932823;29;20472;-85
2021/07/08 05:48:04;;;;;;;2.60;1.70;;;25.20;58.20;;;;;;4933088;29;20646;-84
2021/07/08 05:50:30;;;;;;;2.10;1.60;;;25.20;58.20;;;;;;4933457;29;20424;-85
2021/07/08 05:52:58;;;;;;;3.00;1.40;;;25.20;58.20;;;;;;4933388;29;20440;-85
2021/07/08 05:55:29;;;;;;;3.23;2.93;;;25.20;58.20;;;;;;4934216;29;20531;-85
2021/07/08 05:57:57;;;;;;;2.30;1.53;;;25.10;58.20;;;;;;4933166;29;20424;-85
2021/07/08 06:00:23;;;;;;;2.20;2.00;;;25.20;58.30;;;;;;4933233;29;20447;-85
2021/07/08 06:03:29;;;;;;;1.80;1.40;;;25.20;58.30;;;;;;4933153;29;20521;-85
2021/07/08 06:05:55;;;;;;;1.90;1.60;;;25.20;58.20;;;;;;4932403;29;20433;-85
2021/07/08 06:11:51;;;;;;;2.83;1.80;;;25.20;58.20;;;;;;4934793;29;20438;-85
2021/07/08 06:14:17;;;;;;;2.47;1.97;;;25.20;58.30;;;;;;4933656;29;20978;-85
2021/07/08 06:19:34;;;;;;;2.80;1.67;;;25.10;58.30;;;;;;4934341;29;20419;-86
2021/07/08 06:22:01;;;;;;;3.90;1.67;;;25.10;58.40;;;;;;4933968;29;20878;-85
2021/07/08 06:24:29;;;;;;;4.00;1.67;;;25.20;58.50;;;;;;4933522;29;20424;-85
2021/07/08 06:26:55;;;;;;;2.80;1.53;;;25.10;58.30;;;;;;4930577;29;20993;-83
2021/07/08 06:29:24;;;;;;;3.40;1.60;;;25.10;58.40;;;;;;4929285;29;20427;-83
2021/07/08 06:31:50;;;;;;;3.10;1.93;;;25.10;58.30;;;;;;4929097;29;20460;-83
2021/07/08 06:34:31;;;;;;;4.13;1.80;;;25.10;58.30;;;;;;4929444;29;20483;-83
2021/07/08 06:37:08;;;;;;;2.37;1.50;;;25.20;58.40;;;;;;4929715;29;20523;-83
2021/07/08 06:39:34;;;;;;;1.57;1.37;;;25.10;58.30;;;;;;4929939;29;20406;-84
2021/07/08 06:41:59;;;;;;;4.27;1.70;;;25.10;58.40;;;;;;4929138;29;20487;-83
2021/07/08 06:44:28;;;;;;;2.93;1.83;;;25.10;58.40;;;;;;4930367;29;20199;-84
2021/07/08 06:46:55;;;;;;;2.57;1.70;;;25.20;58.40;;;;;;4929633;29;20186;-84
2021/07/08 06:49:43;;;;;;;1.93;1.73;;;25.10;58.40;;;;;;4929581;29;20444;-84
2021/07/08 06:52:10;;;;;;;2.70;2.03;;;25.10;58.40;;;;;;4929410;29;20435;-83
2021/07/08 06:54:36;;;;;;;2.07;1.80;;;25.20;59.00;;;;;;4929715;29;20428;-83
2021/07/08 06:57:11;;;;;;;2.20;1.93;;;25.10;58.40;;;;;;4924692;29;20443;-87
2021/07/08 07:07:39;;;;;;;2.40;2.20;;;25.10;58.60;;;;;;4994456;23;20488;-86
2021/07/08 07:10:16;;;;;;;4.10;1.70;;;25.10;58.60;;;;;;4909961;29;20404;-86
2021/07/08 07:13:06;;;;;;;1.63;1.53;;;25.10;58.70;;;;;;4915393;29;20514;-86
2021/07/08 07:15:44;;;;;;;;;;;;;;;;;;;;;
2021/07/08 07:18:10;;;;;;;2.60;1.80;;;25.10;58.70;;;;;;4916218;29;20456;-87
2021/07/08 07:20:39;;;;;;;3.27;1.80;;;25.10;58.70;;;;;;4916119;29;20467;-87
2021/07/08 07:23:05;;;;;;;2.50;1.87;;;25.10;58.70;;;;;;4917819;29;20802;-86
2021/07/08 07:25:40;;;;;;;3.93;2.23;;;25.10;58.70;;;;;;4915933;29;20480;-87
2021/07/08 07:28:24;;;;;;;2.43;1.90;;;25.10;58.70;;;;;;4916623;29;20419;-86
2021/07/08 07:31:01;;;;;;;3.93;2.00;;;25.10;58.70;;;;;;4920946;29;20455;-86
2021/07/08 07:33:57;;;;;;;5.20;1.80;;;25.10;58.70;;;;;;4913751;29;20459;-86
2021/07/08 07:36:26;;;;;;;6.07;2.17;;;25.10;58.70;;;;;;4913564;29;20432;-86
2021/07/08 07:38:54;;;;;;;2.97;2.17;;;25.10;58.70;;;;;;4915426;29;20417;-86
2021/07/08 07:41:26;;;;;;;4.87;1.70;;;25.10;58.70;;;;;;4898681;29;20476;-86
2021/07/08 07:43:57;;;;;;;2.90;1.80;;;25.10;58.70;;;;;;4899591;29;20436;-86
2021/07/08 07:46:27;;;;;;;2.47;1.97;;;25.10;58.70;;;;;;4916075;29;20421;-87
2021/07/08 07:49:04;;;;;;;2.37;2.17;;;25.10;58.70;;;;;;4916710;29;20432;-86
2021/07/08 07:51:45;;;;;;;4.50;2.33;;;25.10;58.70;;;;;;4913618;29;20505;-87
2021/07/08 07:54:18;;;;;;;2.40;1.97;;;25.10;58.70;;;;;;4916009;29;20428;-86
2021/07/08 07:56:47;;;;;;;2.17;1.90;;;25.10;58.70;;;;;;4918439;29;20787;-86
2021/07/08 07:59:32;;;;;;;3.10;1.90;;;25.10;58.70;;;;;;4918163;29;20428;-84
2021/07/08 08:02:22;;;;;;;2.37;1.80;;;25.10;58.70;;;;;;4918463;29;20467;-84
2021/07/08 08:05:19;;;;;;;2.30;2.00;;;25.10;58.70;;;;;;4923738;29;20421;-84
2021/07/08 08:11:02;;;;;;;2.10;1.83;;;25.10;58.70;;;;;;4923867;29;20437;-85
2021/07/08 08:18:03;;;;;;;2.93;2.00;;;25.10;58.80;;;;;;4904971;29;20429;-84
2021/07/08 08:34:01;;;;;;;2.77;1.70;;;25.00;59.00;;;;;;5221399;23;20566;-85
2021/07/08 08:36:50;;;;;;;1.97;1.70;;;25.00;58.90;;;;;;4930764;29;20440;-84
2021/07/08 08:39:42;;;;;;;2.30;1.77;;;25.10;58.80;;;;;;4941426;29;20410;-83
2021/07/08 08:42:30;;;;;;;3.43;2.20;;;25.10;58.70;;;;;;4926371;29;20455;-83
2021/07/08 08:46:19;;;;;;;2.33;2.13;;;25.10;58.70;;;;;;4942451;29;20419;-83
2021/07/08 08:52:33;;;;;;;2.47;2.00;;;25.20;58.70;;;;;;4821706;29;20427;-84
2021/07/08 08:58:22;;;;;;;2.33;1.70;;;25.30;58.70;;;;;;4805071;30;20430;-84
2021/07/08 09:00:51;;;;;;;2.23;1.60;;;25.20;58.70;;;;;;4804412;29;20466;-84
2021/07/08 09:03:28;;;;;;;2.90;1.80;;;25.30;58.60;;;;;;4804878;29;20430;-84
2021/07/08 09:06:10;;;;;;;2.27;2.00;;;25.30;58.60;;;;;;4804201;30;20916;-84
2021/07/08 09:08:51;;;;;;;2.30;2.10;;;25.30;58.50;;;;;;4804091;30;20429;-85
2021/07/08 09:11:37;;;;;;;2.73;1.70;;;25.40;58.50;;;;;;4803821;29;20470;-85
2021/07/08 09:14:29;;;;;;;6.07;2.30;;;25.40;58.60;;;;;;4788463;30;20578;-85
2021/07/08 09:17:14;;;;;;;2.77;2.20;;;25.40;58.60;;;;;;4788787;30;20481;-87
2021/07/08 09:19:41;;;;;;;4.13;2.30;;;25.40;58.60;;;;;;4824306;29;20423;-86
2021/07/08 09:22:21;;;;;;;;;;;;;;;;;;;;;
2021/07/08 09:24:51;;;;;;;2.80;1.80;;;25.50;58.70;;;;;;4935711;29;20455;-87
2021/07/08 09:27:23;;;;;;;2.50;2.00;;;25.50;58.70;;;;;;4934353;29;20882;-87
2021/07/08 09:30:51;;;;;;;3.13;1.90;;;25.50;58.70;;;;;;4926181;29;20424;-87
2021/07/08 09:34:00;;;;;;;;;;;;;;;;;;;;;
2021/07/08 09:47:30;;;;;;;2.13;1.93;;;25.60;58.80;;;;;;4895958;29;20502;-85
2021/07/08 09:50:04;;;;;;;2.23;2.03;;;25.50;58.80;;;;;;4879779;29;20424;-84
2021/07/08 09:53:04;;;;;;;2.03;1.83;;;25.60;58.90;;;;;;4864389;29;20829;-84
2021/07/08 10:52:54;;;;;;;2.10;1.67;;;25.60;58.30;;;;;;5958128;23;20441;-83
2021/07/08 10:55:43;;;;;;;2.03;1.70;;;25.70;58.30;;;;;;4935839;29;20428;-82
2021/07/08 11:17:13;;;;;;;2.23;1.80;;;25.50;58.50;;;;;;4931128;29;20423;-85
2021/07/08 11:44:14;;;;;;;;;;;;;;;;;;;;;
2021/07/08 11:47:13;;;;;;;2.47;2.20;;;25.50;58.90;;;;;;4730365;30;20482;-85
2021/07/08 11:50:34;;;;;;;2.70;2.30;;;25.40;58.80;;;;;;4715583;30;20430;-85
2021/07/08 11:57:13;;;;;;;2.73;2.40;;;25.50;58.80;;;;;;4730165;30;20431;-85
2021/07/08 12:00:22;;;;;;;2.20;1.80;;;25.50;58.80;;;;;;4746074;30;20432;-85
2021/07/08 12:03:02;;;;;;;;;;;;;;;;;;;;;
2021/07/08 12:32:00;;;;;;;2.50;2.30;;;25.50;58.80;;;;;;4769119;30;20493;-82
2021/07/08 12:34:57;;;;;;;3.13;2.47;;;25.50;59.00;;;;;;4769492;30;20534;-82
2021/07/08 12:38:07;;;;;;;3.60;2.20;;;25.50;59.10;;;;;;4773914;30;20450;-82
2021/07/08 12:40:35;;;;;;;3.17;2.27;;;25.60;59.10;;;;;;4843110;29;20510;-82
2021/07/08 12:43:19;;;;;;;3.70;2.70;;;25.60;59.00;;;;;;4843758;29;20446;-82
2021/07/08 12:49:13;;;;;;;2.40;2.20;;;25.60;59.00;;;;;;4798433;29;20489;-83
2021/07/08 12:51:49;;;;;;;3.73;2.20;;;25.60;59.00;;;;;;4835520;29;20438;-82
2021/07/08 12:54:29;;;;;;;2.73;1.90;;;25.60;59.10;;;;;;4877129;29;20426;-82
2021/07/08 13:00:46;;;;;;;2.77;1.80;;;25.70;58.90;;;;;;4878485;29;20386;-83
2021/07/08 13:03:24;;;;;;;2.70;2.00;;;25.70;59.00;;;;;;4877663;29;20485;-83
2021/07/08 13:06:22;;;;;;;3.80;2.53;;;25.70;59.00;;;;;;4951208;29;20416;-85
2021/07/08 16:45:16;;;;;;;1.50;1.40;;;26.70;57.40;;;;;;5551832;23;26864823;-89
2021/07/08 16:48:19;;;;;;;1.53;1.40;;;26.50;57.70;;;;;;6158759;23;20397;-84
2021/07/08 16:51:58;;;;;;;;;;;;;;;;;;;;;
2021/07/08 16:54:34;;;;;;;1.70;1.53;;;26.40;58.00;;;;;;6185106;23;20399;-85
2021/07/08 17:01:11;;;;;;;1.73;1.27;;;26.30;58.10;;;;;;6183015;23;20729;-84
2021/07/08 17:04:00;;;;;;;1.63;1.47;;;26.30;58.10;;;;;;6119362;23;20393;-85
2021/07/08 17:06:53;;;;;;;1.50;1.40;;;26.30;58.20;;;;;;6094372;23;20434;-85
2021/07/08 17:09:49;;;;;;;1.50;1.20;;;26.30;58.20;;;;;;6099225;23;20755;-84
2021/07/08 17:16:30;;;;;;;1.70;1.20;;;26.30;58.30;;;;;;6155797;23;20487;-88
2021/07/08 17:19:19;;;;;;;2.27;1.33;;;26.20;58.20;;;;;;6158322;23;20384;-83
2021/07/08 17:21:50;;;;;;;2.03;1.50;;;26.20;58.20;;;;;;6134417;23;20368;-83
2021/07/08 17:34:30;;;;;;;1.70;1.50;;;26.20;58.20;;;;;;6119423;23;20382;-84
2021/07/08 17:40:30;;;;;;;1.87;1.40;;;26.20;58.20;;;;;;6058556;23;20359;-83
2021/07/08 17:46:39;;;;;;;1.77;1.50;;;26.20;58.10;;;;;;6114991;23;20448;-83
2021/07/08 17:49:23;;;;;;;1.83;1.70;;;26.10;58.20;;;;;;6093723;23;20439;-82
2021/07/08 17:52:06;;;;;;;;;;;;;;;;;;;;;
2021/07/08 17:55:13;;;;;;;;;;;;;;;;;;;;;
2021/07/08 17:57:56;;;;;;;1.67;1.57;;;26.10;58.10;;;;;;6177488;23;20384;-82
2021/07/08 18:00:28;;;;;;;2.43;1.70;;;26.20;58.30;;;;;;6177540;22;20375;-83
2021/07/08 18:03:07;;;;;;;2.43;1.60;;;26.20;58.20;;;;;;6177128;22;20740;-83
2021/07/08 18:05:43;;;;;;;2.90;1.60;;;26.20;58.20;;;;;;6176692;22;20905;-83
2021/07/08 18:08:14;;;;;;;2.00;1.80;;;26.20;58.20;;;;;;6169517;23;20391;-83
2021/07/08 18:10:43;;;;;;;1.90;1.33;;;26.10;58.10;;;;;;6177357;23;20407;-83
2021/07/08 18:13:26;;;;;;;1.70;1.40;;;26.10;58.20;;;;;;6177710;22;20360;-83
2021/07/08 18:16:09;;;;;;;3.13;2.07;;;26.20;58.20;;;;;;6184561;23;20444;-83
2021/07/08 18:18:41;;;;;;;1.60;1.50;;;26.20;58.80;;;;;;6183523;22;20409;-83
2021/07/08 18:21:20;;;;;;;3.10;1.87;;;26.10;58.10;;;;;;6177092;22;20372;-83
2021/07/08 18:24:23;;;;;;;;;;;;;;;;;;;;;
2021/07/08 18:30:16;;;;;;;2.03;1.70;;;26.20;58.20;;;;;;6241700;22;20411;-83
2021/07/08 18:32:44;;;;;;;1.80;1.63;;;26.10;58.20;;;;;;6215816;23;20378;-83
2021/07/08 18:42:10;;;;;;;1.50;1.33;;;26.10;58.10;;;;;;6242256;23;20424;-82
2021/07/08 18:44:37;;;;;;;1.90;1.70;;;26.10;58.20;;;;;;6188871;23;20440;-82
2021/07/08 18:57:42;;;;;;;2.17;1.97;;;26.10;58.20;;;;;;6091606;23;20370;-83
2021/07/08 19:00:27;;;;;;;2.50;1.83;;;26.10;58.20;;;;;;6092374;23;20395;-82
2021/07/08 19:02:53;;;;;;;1.67;1.47;;;26.10;58.20;;;;;;6092477;23;20382;-83
2021/07/08 19:05:22;;;;;;;2.03;1.83;;;26.10;58.20;;;;;;6092040;23;20441;-82
2021/07/08 19:08:01;;;;;;;1.87;1.70;;;26.10;58.20;;;;;;6037478;23;20257;-83
2021/07/08 19:17:31;;;;;;;2.10;1.90;;;26.10;58.10;;;;;;5978040;24;20366;-84
2021/07/08 19:20:01;;;;;;;2.00;1.70;;;26.10;58.20;;;;;;5955301;24;20394;-84
2021/07/08 19:22:36;;;;;;;2.10;1.77;;;26.10;58.10;;;;;;5978115;24;20144;-83
2021/07/08 19:25:06;;;;;;;2.70;1.80;;;26.10;58.10;;;;;;6026343;23;20419;-83
2021/07/08 19:27:38;;;;;;;2.13;1.70;;;26.10;58.10;;;;;;6033869;23;20408;-83
2021/07/08 19:30:09;;;;;;;1.60;1.50;;;26.10;58.20;;;;;;6069806;23;20448;-83
2021/07/08 19:32:50;;;;;;;1.70;1.60;;;26.10;58.10;;;;;;6089613;23;20370;-83
2021/07/08 19:35:18;;;;;;;2.03;1.70;;;26.10;58.10;;;;;;6119461;23;20382;-83
2021/07/08 19:37:55;;;;;;;2.10;1.77;;;26.10;58.10;;;;;;6117543;23;20740;-85
2021/07/08 19:40:56;;;;;;;2.00;1.80;;;26.10;58.10;;;;;;6117482;23;20452;-85
2021/07/08 19:43:29;;;;;;;2.10;1.90;;;26.10;58.10;;;;;;6095174;23;20385;-84
2021/07/08 19:46:02;;;;;;;2.10;1.83;;;26.10;58.20;;;;;;6118212;23;20421;-86
2021/07/08 19:48:32;;;;;;;2.17;2.00;;;26.10;58.20;;;;;;6093661;23;20393;-87
2021/07/08 20:00:58;;;;;;;2.20;2.00;;;26.10;58.20;;;;;;6058027;23;20642;-85
2021/07/08 20:03:28;;;;;;;2.20;2.00;;;26.00;58.20;;;;;;6057248;23;20388;-85
2021/07/08 20:06:05;;;;;;;2.30;2.10;;;26.00;58.20;;;;;;6058272;23;20510;-85
2021/07/08 20:12:10;;;;;;;2.40;2.20;;;26.00;58.10;;;;;;6030502;23;20373;-85
2021/07/08 20:14:45;;;;;;;3.07;2.77;;;26.00;58.20;;;;;;6000617;23;20465;-84
2021/07/08 20:17:38;;;;;;;2.90;2.13;;;25.90;58.20;;;;;;6028869;23;20457;-86
2021/07/08 20:20:20;;;;;;;3.50;2.43;;;26.00;58.30;;;;;;6003830;23;20751;-85
2021/07/08 20:22:59;;;;;;;;;;;;;;;;;;;;;
2021/07/08 20:25:40;;;;;;;2.60;2.37;;;26.00;58.30;;;;;;6026091;23;20424;-84
2021/07/08 20:28:07;;;;;;;2.53;2.33;;;26.00;58.30;;;;;;6002915;23;20419;-85
2021/07/08 20:31:02;;;;;;;2.33;2.13;;;25.90;58.20;;;;;;6042748;23;20427;-86
2021/07/08 20:39:20;;;;;;;2.20;2.00;;;25.90;58.30;;;;;;5940971;24;20391;-86
2021/07/08 20:42:08;;;;;;;2.53;2.33;;;25.90;58.30;;;;;;5975869;23;20402;-86
2021/07/08 20:44:43;;;;;;;2.47;1.93;;;25.90;58.40;;;;;;5971966;24;20424;-86
2021/07/08 20:47:10;;;;;;;2.10;1.90;;;25.80;58.30;;;;;;5951851;24;20420;-86
2021/07/08 20:49:44;;;;;;;2.17;1.80;;;25.90;58.40;;;;;;6052287;23;20414;-86
2021/07/08 20:52:16;;;;;;;3.93;2.27;;;25.80;58.30;;;;;;6058071;23;20413;-85
2021/07/08 20:54:51;;;;;;;2.50;2.17;;;25.80;58.40;;;;;;6056927;23;20414;-86
2021/07/08 20:57:40;;;;;;;2.73;2.03;;;25.80;58.90;;;;;;6057585;23;20382;-86
2021/07/08 21:00:34;;;;;;;2.20;2.00;;;25.80;58.40;;;;;;6054895;23;20461;-86
2021/07/08 21:03:07;;;;;;;4.13;2.13;;;25.80;58.40;;;;;;6056755;23;20402;-86
2021/07/08 21:06:11;;;;;;;2.53;2.17;;;25.70;58.40;;;;;;6057086;23;20434;-86
2021/07/08 21:15:40;;;;;;;2.10;1.90;;;25.60;58.40;;;;;;6090629;23;20382;-83
2021/07/08 21:18:16;;;;;;;2.93;2.50;;;25.60;58.50;;;;;;6092978;23;20367;-83
2021/07/08 21:20:54;;;;;;;2.37;2.07;;;25.60;58.50;;;;;;6069528;23;20362;-82
2021/07/08 21:23:51;;;;;;;4.37;2.50;;;25.60;58.50;;;;;;6072338;23;20366;-83
2021/07/08 21:26:33;;;;;;;;;;;;;;;;;;;;;
2021/07/08 21:29:15;;;;;;;3.07;2.60;;;25.60;58.50;;;;;;6093935;23;20374;-84
2021/07/08 21:31:55;;;;;;;5.07;2.30;;;25.60;58.50;;;;;;6048229;23;20370;-84
2021/07/08 21:34:24;;;;;;;2.50;2.30;;;25.50;58.50;;;;;;6068693;23;20407;-83
2021/07/08 21:36:56;;;;;;;2.47;1.93;;;25.50;58.50;;;;;;6069522;23;20433;-83
2021/07/08 21:39:28;;;;;;;3.20;2.47;;;25.50;58.50;;;;;;6069375;23;20450;-82
2021/07/08 21:42:01;;;;;;;2.60;2.20;;;25.50;58.50;;;;;;6068901;23;20418;-83
2021/07/08 21:44:33;;;;;;;2.30;2.00;;;25.50;58.50;;;;;;6067547;23;20399;-83
2021/07/08 21:47:03;;;;;;;5.07;2.60;;;25.50;58.50;;;;;;6067225;23;20394;-83
2021/07/08 21:49:31;;;;;;;2.43;2.07;;;25.50;58.50;;;;;;6062773;23;20379;-83
2021/07/08 21:52:05;;;;;;;5.13;2.37;;;25.50;58.40;;;;;;6078132;23;20386;-82
2021/07/08 21:54:39;;;;;;;3.40;2.10;;;25.50;58.40;;;;;;6086964;23;20401;-84
2021/07/08 21:57:17;;;;;;;2.17;1.97;;;25.50;58.50;;;;;;6087031;23;20390;-85
2021/07/08 21:59:50;;;;;;;2.10;1.90;;;25.50;58.40;;;;;;6060508;23;20400;-85
2021/07/08 22:02:29;;;;;;;3.43;2.43;;;25.50;58.40;;;;;;6107969;23;20366;-84
2021/07/08 22:04:58;;;;;;;3.30;1.80;;;25.50;58.40;;;;;;6084070;23;20433;-84
2021/07/08 22:07:32;;;;;;;2.13;1.93;;;25.40;58.30;;;;;;6107532;23;20369;-85
2021/07/08 22:10:01;;;;;;;2.50;1.97;;;25.40;58.30;;;;;;6083463;23;20382;-85
2021/07/08 22:13:04;;;;;;;1.70;1.60;;;25.40;58.30;;;;;;6084186;23;20385;-85
2021/07/08 22:15:36;;;;;;;2.90;1.73;;;25.50;58.30;;;;;;6100833;23;20392;-85
2021/07/08 22:18:25;;;;;;;2.00;1.80;;;25.40;58.30;;;;;;6083572;23;20457;-84
2021/07/08 22:21:02;;;;;;;2.17;1.60;;;25.40;58.30;;;;;;6084181;23;20378;-84
2021/07/08 22:23:39;;;;;;;1.73;1.60;;;25.40;58.30;;;;;;6084836;23;20385;-85
2021/07/08 22:26:22;;;;;;;2.40;1.70;;;25.40;58.30;;;;;;6084029;23;20440;-85
2021/07/08 22:29:14;;;;;;;2.27;1.83;;;25.40;58.30;;;;;;6082083;23;20405;-85
2021/07/08 22:31:46;;;;;;;1.87;1.67;;;25.40;58.80;;;;;;6085277;23;20390;-85
2021/07/08 22:34:15;;;;;;;2.23;1.60;;;25.40;58.30;;;;;;6083903;23;20416;-84
2021/07/08 22:36:46;;;;;;;2.73;1.93;;;25.40;58.30;;;;;;6083371;23;20390;-85
2021/07/08 22:39:13;;;;;;;2.50;1.80;;;25.40;58.30;;;;;;6084474;23;20770;-86